Time;durP1;ratioP1;P1;durP2;ratioP2;P2;SDS_P1;SDS_P2;PMS_P1;PMS_P2;Temp;Humidity;BMP_temperature;BMP_pressure;BME280_temperature;BME280_humidity;BME280_pressure;Samples;Min_cycle;Max_cycle;Signal;HPM_P1;HPM_P2
2021/06/24 00:01:58;;;;;;;11.57;10.43;;;18.80;99.90;;;;;;5011999;28;20457;-84
2021/06/24 00:04:53;;;;;;;11.83;10.73;;;18.90;99.90;;;;;;5013273;28;20453;-86
2021/06/24 00:15:14;;;;;;;11.27;10.17;;;18.70;99.90;;;;;;4929384;29;20441;-86
2021/06/24 00:18:03;;;;;;;10.53;9.43;;;18.70;99.90;;;;;;4964649;28;20499;-84
2021/06/24 00:20:49;;;;;;;11.37;10.27;;;18.80;99.90;;;;;;5008390;28;20941;-84
2021/06/24 00:23:53;;;;;;;11.57;10.57;;;18.90;99.90;;;;;;5008936;28;20477;-85
2021/06/24 00:26:28;;;;;;;10.73;9.73;;;19.00;99.90;;;;;;5008210;28;20485;-84
2021/06/24 00:29:01;;;;;;;11.50;10.30;;;18.90;99.90;;;;;;4988810;28;20560;-85
2021/06/24 00:32:28;;;;;;;11.40;10.33;;;18.90;99.90;;;;;;5005938;28;20454;-85
2021/06/24 00:35:08;;;;;;;10.90;9.90;;;19.00;99.90;;;;;;4987661;28;20450;-83
2021/06/24 00:38:00;;;;;;;10.90;9.93;;;18.90;99.90;;;;;;5005682;28;21763;-84
2021/06/24 00:40:39;;;;;;;10.27;9.27;;;18.80;99.90;;;;;;5006599;28;20478;-84
2021/06/24 00:47:34;;;;;;;10.10;9.13;;;18.70;99.90;;;;;;4917697;29;20618;-84
2021/06/24 00:50:40;;;;;;;10.50;9.27;;;18.70;99.90;;;;;;4909480;29;20442;-84
2021/06/24 00:53:30;;;;;;;10.27;9.47;;;18.70;99.90;;;;;;4915838;29;20561;-84
2021/06/24 00:56:35;;;;;;;;;;;;;;;;;;;;;
2021/06/24 00:59:22;;;;;;;;;;;;;;;;;;;;;
2021/06/24 01:02:05;;;;;;;10.57;8.50;;;18.70;99.90;;;;;;5007761;28;20454;-83
2021/06/24 01:04:52;;;;;;;9.20;8.40;;;18.80;99.90;;;;;;4991234;28;20458;-85
2021/06/24 01:14:59;;;;;;;9.77;8.40;;;18.80;99.90;;;;;;5068887;28;20479;-83
2021/06/24 01:17:40;;;;;;;9.80;8.80;;;18.70;99.90;;;;;;5049789;28;20452;-86
2021/06/24 01:20:31;;;;;;;9.60;8.70;;;18.70;99.90;;;;;;5062176;28;20500;-85
2021/06/24 01:23:15;;;;;;;9.43;8.50;;;18.70;99.90;;;;;;5071157;28;20442;-86
2021/06/24 01:26:05;;;;;;;9.23;8.43;;;18.70;99.90;;;;;;5071588;28;20562;-84
2021/06/24 01:28:48;;;;;;;10.67;8.53;;;18.70;99.90;;;;;;5065519;28;20514;-84
2021/06/24 01:31:54;;;;;;;9.10;8.40;;;18.70;99.90;;;;;;5064887;28;20461;-86
2021/06/24 01:34:59;;;;;;;11.83;8.20;;;18.80;99.90;;;;;;5079686;28;20448;-85
2021/06/24 01:37:49;;;;;;;9.60;8.77;;;18.70;99.90;;;;;;5064906;28;21249;-85
2021/06/24 01:40:41;;;;;;;9.73;8.83;;;18.70;99.90;;;;;;5068178;28;20453;-83
2021/06/24 01:43:36;;;;;;;8.40;7.70;;;18.60;99.90;;;;;;5066112;28;20481;-84
2021/06/24 01:46:28;;;;;;;9.07;8.20;;;18.60;99.90;;;;;;5069157;28;20478;-84
2021/06/24 01:49:11;;;;;;;9.30;8.53;;;18.60;99.90;;;;;;5074108;28;20470;-85
2021/06/24 01:51:57;;;;;;;11.03;9.93;;;18.60;99.90;;;;;;5066769;28;20459;-84
2021/06/24 01:58:34;;;;;;;10.73;9.27;;;18.60;99.90;;;;;;5000256;28;20476;-84
2021/06/24 02:01:31;;;;;;;9.80;8.90;;;18.60;99.90;;;;;;4974547;28;21019;-84
2021/06/24 02:04:03;;;;;;;11.37;8.43;;;18.70;99.90;;;;;;5066797;28;20531;-85
2021/06/24 02:06:49;;;;;;;10.13;9.27;;;18.70;99.90;;;;;;5081175;28;20489;-84
2021/06/24 02:09:43;;;;;;;9.10;8.30;;;18.70;99.90;;;;;;5079779;28;20535;-84
2021/06/24 02:12:18;;;;;;;10.07;9.17;;;18.70;99.90;;;;;;5078387;28;20447;-83
2021/06/24 02:15:18;;;;;;;10.10;9.10;;;18.70;99.90;;;;;;5059737;28;20419;-85
2021/06/24 02:18:18;;;;;;;10.00;9.00;;;18.70;99.90;;;;;;5083558;28;20500;-85
2021/06/24 02:20:57;;;;;;;12.03;9.37;;;18.70;99.90;;;;;;5079477;28;20443;-86
2021/06/24 02:23:47;;;;;;;9.37;8.60;;;18.60;99.90;;;;;;5081095;28;20447;-83
2021/06/24 02:29:45;;;;;;;10.57;9.57;;;18.70;99.90;;;;;;5086465;28;20466;-85
2021/06/24 02:32:32;;;;;;;10.20;9.20;;;18.70;99.90;;;;;;5079768;28;20585;-85
2021/06/24 02:38:56;;;;;;;12.30;9.30;;;19.00;99.90;;;;;;5031928;28;21200;-84
2021/06/24 02:41:54;;;;;;;10.20;9.23;;;18.90;99.90;;;;;;4998133;28;20438;-85
2021/06/24 02:44:32;;;;;;;10.53;9.63;;;18.90;99.90;;;;;;5012671;28;20462;-84
2021/06/24 02:47:45;;;;;;;11.10;10.13;;;18.80;99.90;;;;;;4984203;28;20450;-85
2021/06/24 02:50:27;;;;;;;10.57;9.77;;;19.10;99.90;;;;;;5005098;28;20457;-82
2021/06/24 02:53:29;;;;;;;9.90;8.90;;;18.90;99.90;;;;;;5006796;28;20465;-82
2021/06/24 02:56:10;;;;;;;9.60;8.80;;;18.80;99.90;;;;;;5010662;28;20475;-84
2021/06/24 02:59:23;;;;;;;9.47;8.67;;;18.70;99.90;;;;;;4993361;28;20556;-84
2021/06/24 03:10:08;;;;;;;9.57;8.67;;;18.70;99.90;;;;;;4935481;28;20462;-85
2021/06/24 03:13:02;;;;;;;10.33;9.17;;;18.60;99.90;;;;;;4928347;28;20471;-82
2021/06/24 03:15:57;;;;;;;12.20;9.00;;;18.50;99.90;;;;;;4918258;29;20446;-83
2021/06/24 03:19:47;;;;;;;11.53;10.33;;;18.50;99.90;;;;;;4926632;29;20469;-85
2021/06/24 03:26:26;;;;;;;10.80;9.70;;;18.50;99.90;;;;;;4996740;28;20481;-86
2021/06/24 03:29:23;;;;;;;9.30;8.60;;;18.60;99.90;;;;;;4987165;28;20466;-85
2021/06/24 03:32:26;;;;;;;;;;;;;;;;;;;;;
2021/06/24 03:35:23;;;;;;;11.67;9.43;;;18.50;99.90;;;;;;5002890;28;20450;-85
2021/06/24 03:37:57;;;;;;;13.57;10.20;;;18.60;99.90;;;;;;4986271;28;20488;-85
2021/06/24 03:40:36;;;;;;;9.93;9.03;;;18.60;99.90;;;;;;4987559;28;20602;-85
2021/06/24 03:43:34;;;;;;;10.77;9.70;;;18.60;99.90;;;;;;4987329;28;20449;-84
2021/06/24 03:46:18;;;;;;;11.90;9.50;;;18.60;99.90;;;;;;4987901;28;20486;-84
2021/06/24 03:49:11;;;;;;;10.73;9.63;;;18.60;99.90;;;;;;5060276;28;20463;-85
2021/06/24 03:56:09;;;;;;;11.43;10.33;;;18.70;99.90;;;;;;4992652;28;20497;-85
2021/06/24 04:01:25;;;;;;;11.13;10.17;;;18.60;99.90;;;;;;5385202;22;20496;-84
2021/06/24 04:08:10;;;;;;;11.70;10.70;;;18.60;99.90;;;;;;4988358;22;20494;-84
2021/06/24 04:11:40;;;;;;;11.50;10.50;;;18.50;99.90;;;;;;5044475;28;20432;-86
2021/06/24 04:17:57;;;;;;;12.03;10.83;;;18.60;99.90;;;;;;5032186;28;20981;-85
2021/06/24 04:21:01;;;;;;;12.67;11.37;;;18.60;99.90;;;;;;5023389;28;20449;-84
2021/06/24 04:28:25;;;;;;;11.53;10.40;;;18.50;99.90;;;;;;5001251;28;20446;-85
2021/06/24 04:30:58;;;;;;;12.57;11.40;;;18.50;99.90;;;;;;4931704;28;20450;-87
2021/06/24 04:34:41;;;;;;;11.77;10.50;;;18.50;99.90;;;;;;4986303;28;20451;-85
2021/06/24 04:41:49;;;;;;;11.07;9.97;;;18.50;99.90;;;;;;4921188;29;20463;-83
2021/06/24 04:44:52;;;;;;;11.57;10.43;;;18.40;99.90;;;;;;4926822;29;20446;-85
2021/06/24 04:50:14;;;;;;;13.50;11.80;;;18.60;99.90;;;;;;5771898;22;20550;-85
2021/06/24 05:16:17;;;;;;;14.37;12.73;;;19.10;99.90;;;;;;4952717;29;20521;-85
2021/06/24 05:19:14;;;;;;;14.33;12.70;;;19.20;99.90;;;;;;5000812;28;20484;-85
2021/06/24 05:22:09;;;;;;;13.80;12.50;;;19.00;99.90;;;;;;5052941;28;20449;-85
2021/06/24 05:24:58;;;;;;;12.83;11.60;;;18.80;99.90;;;;;;5052815;28;20440;-85
2021/06/24 05:39:10;;;;;;;14.63;12.77;;;18.60;99.90;;;;;;5116636;22;20598;-86
2021/06/24 06:05:33;;;;;;;15.10;13.50;;;19.00;99.90;;;;;;5052474;28;20436;-84
2021/06/24 06:12:09;;;;;;;16.57;14.50;;;19.00;99.90;;;;;;5071621;28;20515;-84
2021/06/24 06:14:55;;;;;;;16.97;13.80;;;19.10;99.90;;;;;;5053349;28;20527;-85
2021/06/24 06:27:14;;;;;;;15.70;14.17;;;18.80;99.90;;;;;;4968675;28;20987;-83
2021/06/24 06:30:10;;;;;;;17.00;14.10;;;18.90;99.90;;;;;;4959472;28;20460;-84
2021/06/24 06:44:30;;;;;;;16.97;15.37;;;19.20;99.90;;;;;;5024543;28;20417;-85
2021/06/24 07:32:29;;;;;;;19.93;16.63;;;19.50;99.90;;;;;;4987907;28;20445;-84
2021/06/24 07:35:49;;;;;;;19.53;17.53;;;19.60;99.90;;;;;;4977281;28;20863;-84
2021/06/24 07:38:53;;;;;;;19.37;17.37;;;19.60;99.90;;;;;;4981456;28;20549;-84
2021/06/24 07:45:55;;;;;;;19.00;17.10;;;19.50;99.90;;;;;;4919740;29;20443;-82
2021/06/24 07:48:43;;;;;;;17.50;15.70;;;19.40;99.90;;;;;;5044969;22;20487;-84
2021/06/24 07:51:33;;;;;;;18.40;16.80;;;19.50;99.90;;;;;;5041457;28;20508;-82
2021/06/24 07:54:18;;;;;;;18.27;16.40;;;19.80;99.90;;;;;;5060401;28;20447;-81
2021/06/24 08:01:31;;;;;;;19.07;17.07;;;19.80;99.90;;;;;;4969092;28;20516;-83
2021/06/24 08:27:34;;;;;;;16.80;15.30;;;20.40;99.90;;;;;;5041742;28;20491;-84
2021/06/24 08:30:41;;;;;;;19.00;17.00;;;20.40;99.90;;;;;;5046042;28;20466;-84
2021/06/24 08:34:10;;;;;;;18.00;16.40;;;20.40;99.90;;;;;;5047528;28;20427;-83
2021/06/24 08:41:51;;;;;;;21.30;19.40;;;20.60;99.90;;;;;;5047261;28;20466;-84
2021/06/24 08:45:22;;;;;;;21.30;19.30;;;20.50;99.90;;;;;;5036221;28;20826;-83
2021/06/24 08:48:33;;;;;;;19.60;17.53;;;20.50;99.90;;;;;;5044029;28;21040;-82
2021/06/24 08:54:54;;;;;;;19.03;17.23;;;21.00;99.90;;;;;;4931854;29;20433;-82
2021/06/24 08:57:57;;;;;;;20.90;18.73;;;21.10;99.20;;;;;;4937806;29;20466;-83
2021/06/24 09:01:21;;;;;;;19.80;17.80;;;21.00;99.00;;;;;;4927016;29;21150;-83
2021/06/24 09:04:40;;;;;;;19.10;17.40;;;20.80;99.70;;;;;;4915654;29;20457;-84
2021/06/24 09:08:01;;;;;;;19.83;17.93;;;21.10;99.60;;;;;;4888602;29;20533;-81
2021/06/24 09:11:20;;;;;;;21.50;19.50;;;21.10;99.30;;;;;;4872268;29;21233;-84
2021/06/24 09:21:33;;;;;;;18.80;17.03;;;21.20;99.40;;;;;;4675797;28;10001477;-85
2021/06/24 09:28:18;;;;;;;17.93;16.20;;;21.90;98.10;;;;;;4974328;28;20704;-83
2021/06/24 09:35:20;;;;;;;17.57;16.07;;;22.10;96.90;;;;;;4964721;28;20474;-84
2021/06/24 09:38:47;;;;;;;16.50;15.00;;;21.60;97.80;;;;;;4853416;29;20630;-83
2021/06/24 09:42:20;;;;;;;16.83;15.17;;;21.60;98.30;;;;;;4857256;28;20569;-83
2021/06/24 09:45:29;;;;;;;;;;;;;;;;;;;;;
2021/06/24 09:55:21;;;;;;;;;;;;;;;;;;;;;
2021/06/24 09:58:11;;;;;;;14.10;12.83;;;21.90;97.40;;;;;;5031459;28;21004;-83
2021/06/24 10:00:54;;;;;;;12.43;11.40;;;22.70;96.70;;;;;;5030824;28;20440;-84
2021/06/24 10:03:47;;;;;;;11.87;10.80;;;23.30;95.50;;;;;;5033085;28;20518;-83
2021/06/24 10:06:31;;;;;;;12.40;11.40;;;23.60;94.30;;;;;;5027759;28;20555;-85
2021/06/24 10:12:03;;;;;;;13.37;12.27;;;25.30;92.10;;;;;;5135944;22;21023;-85
2021/06/24 10:14:59;;;;;;;;;;;;;;;;;;;;;
2021/06/24 10:17:52;;;;;;;14.80;13.40;;;26.60;87.60;;;;;;5031526;28;20449;-83
2021/06/24 10:24:34;;;;;;;15.07;13.63;;;25.90;88.00;;;;;;5016161;28;20864;-83
2021/06/24 10:27:33;;;;;;;15.80;14.27;;;25.30;90.40;;;;;;5000957;28;20504;-86
2021/06/24 10:30:47;;;;;;;14.33;13.17;;;25.60;89.20;;;;;;5017233;28;20468;-87
2021/06/24 10:34:15;;;;;;;12.80;11.80;;;25.50;89.60;;;;;;5015653;28;20498;-85
2021/06/24 10:37:50;;;;;;;13.13;11.93;;;24.80;90.60;;;;;;4950596;28;20428;-83
2021/06/24 11:08:44;;;;;;;16.40;15.00;;;23.90;92.70;;;;;;5047996;22;20717;-83
2021/06/24 11:11:43;;;;;;;19.97;18.10;;;24.10;92.70;;;;;;5005869;28;20526;-84
2021/06/24 11:15:03;;;;;;;18.03;16.37;;;24.30;92.30;;;;;;5022611;28;20445;-82
2021/06/24 11:18:01;;;;;;;16.17;14.77;;;24.20;91.80;;;;;;5034294;28;20457;-84
2021/06/24 11:21:04;;;;;;;15.97;14.47;;;23.80;92.70;;;;;;5002657;28;21167;-84
2021/06/24 11:31:04;;;;;;;12.37;11.17;;;23.90;92.50;;;;;;5064501;28;20490;-85
2021/06/24 11:37:53;;;;;;;12.07;11.07;;;23.90;93.40;;;;;;5064887;28;21456;-84
2021/06/24 11:40:24;;;;;;;12.10;10.60;;;24.40;93.20;;;;;;5003902;28;20453;-83
2021/06/24 11:42:58;;;;;;;12.63;11.47;;;23.90;92.90;;;;;;5024840;28;20437;-85
2021/06/24 11:45:48;;;;;;;10.87;9.90;;;23.90;93.20;;;;;;5046066;28;20441;-83
2021/06/24 11:48:35;;;;;;;10.97;10.00;;;23.90;93.30;;;;;;5021509;28;20468;-84
2021/06/24 12:07:13;;;;;;;11.23;10.27;;;25.50;90.20;;;;;;5052395;28;20466;-85
2021/06/24 12:10:23;;;;;;;10.50;9.50;;;25.20;90.80;;;;;;5027612;28;20570;-83
2021/06/24 12:12:50;;;;;;;10.30;9.40;;;25.00;91.00;;;;;;5029562;28;20448;-84
2021/06/24 12:15:20;;;;;;;9.30;8.50;;;25.00;91.40;;;;;;5033518;28;20457;-83
2021/06/24 12:21:08;;;;;;;8.93;8.03;;;24.70;90.80;;;;;;4796270;22;10001861;-83
2021/06/24 12:23:49;;;;;;;9.07;8.17;;;24.30;91.60;;;;;;5055413;28;20220;-83
2021/06/24 12:26:20;;;;;;;8.70;7.90;;;24.40;92.50;;;;;;5033397;28;20456;-82
2021/06/24 12:29:24;;;;;;;8.90;8.10;;;24.20;92.60;;;;;;5043343;28;20535;-84
2021/06/24 12:32:32;;;;;;;10.97;9.80;;;24.30;92.10;;;;;;5039740;28;20429;-83
2021/06/24 12:35:08;;;;;;;8.20;7.60;;;24.40;91.50;;;;;;5058516;28;20516;-83
2021/06/24 12:37:45;;;;;;;8.57;6.67;;;24.10;91.90;;;;;;5037749;28;20452;-85
2021/06/24 12:40:20;;;;;;;7.03;6.43;;;24.10;92.90;;;;;;5037286;28;20432;-84
2021/06/24 12:46:56;;;;;;;7.63;7.00;;;23.70;93.90;;;;;;4905914;29;20504;-84
2021/06/24 12:49:36;;;;;;;7.80;7.20;;;23.70;94.10;;;;;;4930868;28;20456;-84
2021/06/24 12:52:08;;;;;;;6.83;6.30;;;23.40;94.70;;;;;;4998545;28;20457;-85
2021/06/24 12:58:44;;;;;;;7.47;6.87;;;23.70;94.10;;;;;;4984396;28;20454;-82
2021/06/24 13:01:21;;;;;;;7.80;6.93;;;23.70;94.20;;;;;;4974336;28;20527;-83
2021/06/24 13:04:14;;;;;;;8.60;6.33;;;23.40;94.40;;;;;;4981890;28;20523;-84
2021/06/24 13:07:21;;;;;;;7.67;7.07;;;23.30;94.60;;;;;;4950177;29;20492;-85
2021/06/24 13:09:51;;;;;;;8.47;7.67;;;23.20;94.50;;;;;;4932652;29;20468;-83
2021/06/24 13:12:34;;;;;;;7.77;6.90;;;22.90;94.70;;;;;;4938720;29;20441;-81
2021/06/24 13:19:20;;;;;;;8.47;7.70;;;22.90;95.10;;;;;;4927304;29;20481;-82
2021/06/24 13:22:01;;;;;;;7.77;6.97;;;22.80;95.30;;;;;;4933193;29;20552;-85
2021/06/24 13:30:55;;;;;;;8.57;7.77;;;23.30;94.60;;;;;;5031001;28;20542;-82
2021/06/24 13:33:41;;;;;;;8.97;7.97;;;23.20;94.70;;;;;;5026158;28;20548;-83
2021/06/24 13:36:24;;;;;;;9.20;8.27;;;23.20;94.60;;;;;;5031840;28;20544;-84
2021/06/24 13:38:56;;;;;;;8.30;7.60;;;23.10;95.00;;;;;;5061327;28;20464;-84
2021/06/24 13:41:30;;;;;;;8.73;7.80;;;23.30;94.40;;;;;;5071557;28;20460;-85
2021/06/24 13:44:07;;;;;;;8.80;7.93;;;23.50;94.00;;;;;;5055070;28;20439;-85
2021/06/24 13:46:36;;;;;;;9.03;8.23;;;23.60;93.50;;;;;;5050554;28;20435;-85
2021/06/24 13:49:05;;;;;;;8.73;7.97;;;23.70;93.60;;;;;;5055566;28;20448;-84
2021/06/24 13:51:33;;;;;;;9.50;8.60;;;23.80;93.30;;;;;;5054164;28;20451;-83
2021/06/24 13:54:04;;;;;;;11.40;9.10;;;24.00;93.10;;;;;;5052851;28;20452;-86
2021/06/24 13:56:35;;;;;;;9.70;8.83;;;23.80;93.10;;;;;;5048606;28;20511;-85
2021/06/24 13:59:56;;;;;;;;;;;;;;;;;;;;;
2021/06/24 14:02:45;;;;;;;11.30;10.20;;;23.80;93.50;;;;;;5068441;28;20443;-85
2021/06/24 14:05:18;;;;;;;12.70;9.47;;;23.90;93.40;;;;;;5040328;28;20461;-84
2021/06/24 14:07:52;;;;;;;9.77;8.87;;;24.00;93.10;;;;;;5033639;28;20479;-81
2021/06/24 14:10:26;;;;;;;11.37;10.10;;;24.00;93.40;;;;;;5051994;28;21311;-86
2021/06/24 14:12:58;;;;;;;10.33;9.40;;;24.10;93.00;;;;;;5052008;28;20476;-85
2021/06/24 14:15:39;;;;;;;9.20;8.10;;;24.10;93.00;;;;;;5036744;28;20448;-82
2021/06/24 14:18:30;;;;;;;9.47;8.63;;;24.00;93.10;;;;;;5035082;28;20547;-86
2021/06/24 14:21:24;;;;;;;10.00;9.10;;;24.20;92.80;;;;;;5020133;28;20508;-84
2021/06/24 14:24:05;;;;;;;9.17;8.47;;;24.30;92.20;;;;;;5030643;28;20495;-85
2021/06/24 14:27:18;;;;;;;;;;;;;;;;;;;;;
2021/06/24 14:30:08;;;;;;;10.23;9.47;;;23.80;92.90;;;;;;5051952;28;20519;-85
2021/06/24 14:36:24;;;;;;;9.30;8.47;;;24.30;92.00;;;;;;5055345;28;20423;-84
2021/06/24 14:39:24;;;;;;;9.33;8.50;;;24.50;91.70;;;;;;5040827;28;20563;-82
2021/06/24 14:42:27;;;;;;;7.53;6.90;;;24.60;91.30;;;;;;5050780;28;20445;-84
2021/06/24 14:45:19;;;;;;;8.50;7.70;;;24.60;91.30;;;;;;5046190;28;20441;-84
2021/06/24 14:48:48;;;;;;;7.30;6.60;;;24.40;91.20;;;;;;5034105;28;20472;-84
2021/06/24 14:51:21;;;;;;;8.10;7.47;;;24.40;90.90;;;;;;5036520;28;20463;-84
2021/06/24 14:54:01;;;;;;;8.03;7.33;;;24.40;90.80;;;;;;5033340;28;20459;-85
2021/06/24 15:01:34;;;;;;;7.70;7.00;;;23.80;91.40;;;;;;4966921;28;20416;-82
2021/06/24 15:05:02;;;;;;;6.90;6.40;;;23.70;91.40;;;;;;4971375;28;20518;-83
2021/06/24 15:07:47;;;;;;;9.23;7.60;;;23.90;91.50;;;;;;4942883;28;20515;-84
2021/06/24 15:10:52;;;;;;;8.73;8.03;;;24.20;91.10;;;;;;4953711;28;20457;-84
2021/06/24 15:14:11;;;;;;;8.50;7.70;;;24.20;91.00;;;;;;4947932;28;20813;-84
2021/06/24 15:21:49;;;;;;;8.23;7.63;;;24.40;90.80;;;;;;4918306;29;20431;-81
2021/06/24 15:25:18;;;;;;;8.27;7.47;;;24.30;91.00;;;;;;4550816;29;10000238;-84
2021/06/24 15:28:05;;;;;;;10.53;7.13;;;24.00;91.50;;;;;;4903140;28;20224;-84
2021/06/24 15:30:45;;;;;;;10.33;7.37;;;23.90;91.60;;;;;;4967291;28;20476;-83
2021/06/24 15:33:16;;;;;;;8.60;7.90;;;24.00;91.30;;;;;;5033441;28;20468;-82
2021/06/24 15:35:55;;;;;;;7.70;7.00;;;23.90;91.30;;;;;;5048085;28;20460;-81
2021/06/24 15:38:44;;;;;;;7.90;7.30;;;23.80;91.30;;;;;;5055709;28;20452;-83
2021/06/24 15:41:32;;;;;;;8.30;7.60;;;23.70;91.80;;;;;;4969798;28;20504;-83
2021/06/24 15:44:13;;;;;;;8.10;7.50;;;23.70;91.60;;;;;;4970882;28;20425;-85
2021/06/24 15:47:05;;;;;;;7.90;7.27;;;23.90;91.40;;;;;;4993222;28;20474;-83
2021/06/24 15:49:53;;;;;;;8.33;7.63;;;23.90;91.20;;;;;;4993414;28;20459;-83
2021/06/24 15:52:26;;;;;;;7.90;7.20;;;23.70;91.50;;;;;;5005789;28;20470;-83
2021/06/24 15:55:48;;;;;;;8.20;7.60;;;24.00;91.50;;;;;;4993894;28;20455;-84
2021/06/24 15:59:03;;;;;;;8.27;6.57;;;24.10;91.00;;;;;;5005157;28;20455;-84
2021/06/24 16:01:57;;;;;;;6.57;5.97;;;23.90;91.10;;;;;;4993612;28;20540;-85
2021/06/24 16:05:13;;;;;;;6.70;5.57;;;23.90;90.80;;;;;;4962184;28;20440;-83
2021/06/24 16:08:05;;;;;;;6.13;5.53;;;23.90;89.00;;;;;;4967532;28;20511;-82
2021/06/24 16:10:46;;;;;;;5.77;5.30;;;23.60;89.70;;;;;;4952905;28;20480;-82
2021/06/24 16:13:46;;;;;;;5.93;5.43;;;23.60;90.30;;;;;;4963153;28;20558;-81
2021/06/24 16:16:20;;;;;;;6.77;6.10;;;23.60;91.00;;;;;;4965934;28;20484;-85
2021/06/24 16:18:47;;;;;;;5.93;5.43;;;23.90;89.90;;;;;;4994718;28;20542;-84
2021/06/24 16:21:28;;;;;;;6.53;6.00;;;23.80;89.50;;;;;;4999864;28;20445;-84
2021/06/24 16:23:55;;;;;;;6.20;5.57;;;24.10;90.10;;;;;;5011477;28;21267;-83
2021/06/24 16:26:39;;;;;;;8.97;6.80;;;24.30;89.90;;;;;;5007812;28;21187;-83
2021/06/24 16:29:16;;;;;;;7.00;6.30;;;24.20;89.50;;;;;;5017343;28;20624;-81
2021/06/24 16:32:29;;;;;;;6.73;6.13;;;24.20;89.60;;;;;;4999231;28;20454;-82
2021/06/24 16:35:01;;;;;;;7.00;6.30;;;24.40;89.30;;;;;;4989974;28;20466;-83
2021/06/24 16:46:56;;;;;;;9.87;7.27;;;24.00;89.90;;;;;;5040708;28;20423;-86
2021/06/24 16:49:38;;;;;;;6.83;6.23;;;23.80;90.20;;;;;;5040572;28;20541;-84
2021/06/24 16:56:29;;;;;;;7.20;6.70;;;23.90;89.80;;;;;;4985667;28;20933;-82
2021/06/24 16:59:03;;;;;;;7.50;6.90;;;23.90;89.40;;;;;;5018484;28;20495;-85
2021/06/24 17:01:43;;;;;;;7.63;7.00;;;23.70;90.00;;;;;;5047267;28;21099;-83
2021/06/24 17:04:20;;;;;;;7.90;7.30;;;23.60;90.20;;;;;;5044570;28;20452;-83
2021/06/24 17:07:37;;;;;;;;;;;;;;;;;;;;;
2021/06/24 17:11:28;;;;;;;8.40;7.60;;;23.70;90.20;;;;;;5051548;28;20432;-85
2021/06/24 17:14:25;;;;;;;9.13;7.40;;;23.60;90.20;;;;;;5032217;28;20421;-84
2021/06/24 17:20:20;;;;;;;7.83;7.17;;;23.40;90.80;;;;;;5011636;28;20544;-83
2021/06/24 17:22:52;;;;;;;7.57;6.97;;;23.40;90.90;;;;;;4991944;28;20458;-83
2021/06/24 17:25:46;;;;;;;9.20;8.20;;;23.40;91.20;;;;;;4996265;28;20474;-84
2021/06/24 17:31:15;;;;;;;8.40;7.13;;;23.30;91.00;;;;;;5082337;28;20511;-84
2021/06/24 17:34:00;;;;;;;9.30;8.50;;;23.40;91.40;;;;;;5066591;28;20455;-85
2021/06/24 17:36:42;;;;;;;10.63;8.53;;;23.80;90.60;;;;;;5062903;28;20459;-81
2021/06/24 17:39:13;;;;;;;8.70;7.90;;;23.80;90.60;;;;;;5069243;28;20525;-85
2021/06/24 17:41:51;;;;;;;7.63;6.90;;;23.80;90.30;;;;;;5070795;28;20461;-83
2021/06/24 17:45:25;;;;;;;8.37;7.63;;;23.60;90.50;;;;;;5071776;28;20451;-84
2021/06/24 17:48:25;;;;;;;9.20;8.30;;;23.30;91.20;;;;;;5077403;28;20484;-83
2021/06/24 17:51:54;;;;;;;;;;;;;;;;;;;;;
2021/06/24 17:55:14;;;;;;;;;;;;;;;;;;;;;
2021/06/24 17:58:09;;;;;;;8.83;7.90;;;23.20;91.60;;;;;;5016871;28;20453;-81
2021/06/24 18:00:45;;;;;;;8.73;8.03;;;23.40;91.60;;;;;;4999938;28;20961;-84
2021/06/24 18:04:03;;;;;;;9.73;8.83;;;23.40;91.50;;;;;;5007435;28;20499;-85
2021/06/24 18:06:42;;;;;;;9.87;9.07;;;23.60;91.20;;;;;;4968941;28;20450;-86
2021/06/24 18:09:15;;;;;;;11.33;9.83;;;23.60;90.90;;;;;;5003816;28;20932;-83
2021/06/24 18:12:13;;;;;;;9.27;8.40;;;23.50;91.30;;;;;;4987132;28;20535;-86
2021/06/24 18:22:58;;;;;;;12.97;11.87;;;23.40;91.20;;;;;;4992884;28;20450;-85
2021/06/24 18:40:16;;;;;;;12.80;11.63;;;22.90;91.10;;;;;;5053449;28;20478;-85
2021/06/24 18:42:55;;;;;;;12.53;11.30;;;22.80;91.50;;;;;;5049602;28;20447;-84
2021/06/24 18:45:33;;;;;;;12.80;11.70;;;22.80;91.60;;;;;;5058504;28;22105;-84
2021/06/24 18:48:12;;;;;;;13.83;12.43;;;22.80;91.60;;;;;;5048045;28;22609;-83
2021/06/24 18:50:50;;;;;;;13.37;12.07;;;22.70;91.60;;;;;;5053386;28;20446;-83
2021/06/24 18:54:35;;;;;;;;;;;;;;;;;;;;;
2021/06/24 18:57:32;;;;;;;13.60;12.33;;;22.60;92.40;;;;;;4946777;28;20510;-84
2021/06/24 18:59:59;;;;;;;13.20;11.90;;;22.50;92.60;;;;;;4965221;28;20473;-85
2021/06/24 19:02:46;;;;;;;12.57;11.47;;;22.50;93.00;;;;;;5049360;28;21012;-84
2021/06/24 19:05:21;;;;;;;14.30;12.80;;;22.40;93.60;;;;;;5042241;28;21053;-83
2021/06/24 19:07:54;;;;;;;14.13;12.80;;;22.30;93.90;;;;;;5046752;28;20463;-84
2021/06/24 19:14:14;;;;;;;13.60;12.23;;;22.20;94.20;;;;;;5063698;28;20512;-85
2021/06/24 19:17:03;;;;;;;12.20;11.20;;;22.20;94.40;;;;;;5046967;28;20470;-84
2021/06/24 19:20:36;;;;;;;;;;;;;;;;;;;;;
2021/06/24 19:23:29;;;;;;;12.60;11.30;;;22.00;95.00;;;;;;5017770;28;20446;-84
2021/06/24 19:26:05;;;;;;;11.43;10.43;;;22.00;95.10;;;;;;5068818;28;20447;-84
2021/06/24 19:29:04;;;;;;;13.30;12.20;;;22.00;95.20;;;;;;5060747;28;21817;-84
2021/06/24 19:32:51;;;;;;;11.67;10.63;;;22.10;95.10;;;;;;5071275;28;20445;-85
2021/06/24 19:39:02;;;;;;;11.80;10.73;;;22.00;95.10;;;;;;5068478;28;20646;-84
2021/06/24 19:41:40;;;;;;;13.30;12.00;;;22.00;95.20;;;;;;5052858;28;20462;-81
2021/06/24 19:44:37;;;;;;;11.40;10.27;;;22.10;95.20;;;;;;5051881;28;20474;-83
2021/06/24 19:47:42;;;;;;;11.33;10.23;;;22.00;95.10;;;;;;5059719;28;20505;-83
2021/06/24 19:50:34;;;;;;;12.70;11.50;;;22.00;95.30;;;;;;5077001;28;20455;-83
2021/06/24 19:53:25;;;;;;;12.70;11.60;;;21.90;95.30;;;;;;5070842;28;20427;-84
2021/06/24 19:59:42;;;;;;;12.10;10.90;;;21.80;95.60;;;;;;5054564;28;20456;-83
2021/06/24 20:02:16;;;;;;;12.13;11.03;;;21.70;95.60;;;;;;5052654;28;20451;-80
2021/06/24 20:09:51;;;;;;;12.90;11.60;;;21.60;95.90;;;;;;4994731;28;21140;-84
2021/06/24 20:13:32;;;;;;;;;;;;;;;;;;;;;
2021/06/24 20:17:06;;;;;;;12.77;11.67;;;21.60;96.00;;;;;;5072577;28;20574;-83
2021/06/24 20:23:53;;;;;;;12.03;10.73;;;21.40;95.60;;;;;;4962701;28;20462;-83
2021/06/24 20:27:15;;;;;;;12.37;11.07;;;21.20;95.70;;;;;;5042985;28;21127;-82
2021/06/24 20:30:12;;;;;;;13.00;11.73;;;21.20;95.80;;;;;;5027358;28;20456;-82
2021/06/24 20:33:56;;;;;;;12.00;10.90;;;21.10;95.60;;;;;;5048862;28;20439;-83
2021/06/24 20:40:57;;;;;;;10.97;9.97;;;21.00;95.60;;;;;;4931611;28;20517;-83
2021/06/24 20:43:37;;;;;;;10.07;9.27;;;21.00;95.70;;;;;;4931659;28;20477;-81
2021/06/24 20:46:10;;;;;;;11.70;10.57;;;20.90;95.60;;;;;;5034458;28;20460;-82
2021/06/24 20:49:44;;;;;;;10.63;9.60;;;21.00;95.70;;;;;;5046766;28;20491;-83
2021/06/24 20:52:32;;;;;;;11.57;10.33;;;21.00;95.60;;;;;;5011314;28;20465;-81
2021/06/24 20:55:23;;;;;;;10.37;9.57;;;20.90;95.40;;;;;;5051724;28;20461;-82
2021/06/24 20:57:58;;;;;;;12.63;11.43;;;20.90;95.40;;;;;;5050778;28;20463;-82
2021/06/24 21:00:35;;;;;;;11.27;10.17;;;20.90;95.50;;;;;;5046347;28;20518;-83
2021/06/24 21:03:16;;;;;;;11.90;8.90;;;20.90;95.50;;;;;;5054840;28;20518;-82
2021/06/24 21:05:53;;;;;;;11.30;10.27;;;20.80;95.60;;;;;;5045889;28;21059;-84
2021/06/24 21:08:32;;;;;;;11.60;10.47;;;20.80;95.60;;;;;;5043069;28;20511;-83
2021/06/24 21:12:19;;;;;;;15.00;11.40;;;20.80;95.60;;;;;;5065497;28;20459;-84
2021/06/24 21:15:16;;;;;;;;;;;;;;;;;;;;;
2021/06/24 21:17:52;;;;;;;11.30;10.20;;;20.80;95.70;;;;;;5069556;28;20474;-83
2021/06/24 21:20:28;;;;;;;10.13;9.13;;;20.70;95.80;;;;;;5069068;28;22272;-84
2021/06/24 21:23:23;;;;;;;12.35;10.80;;;20.60;95.90;;;;;;4718159;28;10000496;-83
2021/06/24 21:26:03;;;;;;;10.67;9.67;;;20.70;96.10;;;;;;4989001;28;20235;-84
2021/06/24 21:28:33;;;;;;;11.53;10.60;;;20.60;96.30;;;;;;5042759;28;20490;-84
2021/06/24 21:31:03;;;;;;;11.50;10.50;;;20.60;96.40;;;;;;5042147;28;20466;-83
2021/06/24 21:34:23;;;;;;;12.90;11.63;;;20.50;96.50;;;;;;5042775;28;22892;-83
2021/06/24 21:37:08;;;;;;;13.20;11.80;;;20.50;96.50;;;;;;5027826;28;21288;-83
2021/06/24 21:39:37;;;;;;;13.60;12.30;;;20.50;96.60;;;;;;5036232;28;20479;-83
2021/06/24 21:42:07;;;;;;;14.77;13.27;;;20.50;96.70;;;;;;5042660;28;20498;-82
2021/06/24 21:44:39;;;;;;;14.90;13.03;;;20.50;96.50;;;;;;5041828;28;20467;-82
2021/06/24 21:47:06;;;;;;;16.87;13.73;;;20.40;96.80;;;;;;5046452;28;20528;-83
2021/06/24 21:49:41;;;;;;;13.33;11.87;;;20.40;97.00;;;;;;5051223;28;20523;-84
2021/06/24 21:52:10;;;;;;;14.67;13.27;;;20.30;96.90;;;;;;5057576;28;20578;-85
2021/06/24 21:54:46;;;;;;;14.63;13.13;;;20.40;96.80;;;;;;5058258;28;20509;-83
2021/06/24 21:57:15;;;;;;;16.00;14.50;;;20.30;96.90;;;;;;5044732;28;20475;-82
2021/06/24 21:59:51;;;;;;;14.63;13.17;;;20.30;96.80;;;;;;5062687;28;20476;-84